createdAt,value
2022-08-11T00:01:09.801Z,95424.56
2022-08-11T00:03:45.820Z,95422.66
2022-08-11T00:06:15.201Z,95428.13
2022-08-11T00:08:44.764Z,95426.16
2022-08-11T00:11:17.118Z,95421.88
2022-08-11T00:13:47.741Z,95420.28
2022-08-11T00:16:18.273Z,95428.91
2022-08-11T00:18:50.113Z,95423.44
2022-08-11T00:21:21.072Z,95423.44
2022-08-11T00:24:10.669Z,95426.56
2022-08-11T00:26:38.688Z,95424.22
2022-08-11T00:29:11.002Z,95421.47
2022-08-11T00:31:44.766Z,95416.75
2022-08-11T00:34:15.293Z,95395.66
2022-08-11T00:36:48.608Z,95418.72
2022-08-11T00:39:18.934Z,95403.06
2022-08-11T00:42:00.863Z,95361.94
2022-08-11T00:44:42.428Z,95410.50
2022-08-11T00:47:18.393Z,95393.66
2022-08-11T00:50:04.078Z,95410.88
2022-08-11T00:52:49.149Z,95415.19
2022-08-11T00:55:55.875Z,95408.16
2022-08-11T00:59:34.352Z,95405.44
2022-08-11T01:02:15.818Z,95397.16
2022-08-11T01:05:21.941Z,95417.56
2022-08-11T01:08:31.277Z,95416.00
2022-08-11T01:11:55.919Z,95397.59
2022-08-11T01:15:05.692Z,95413.25
2022-08-11T01:18:09.634Z,95390.53
2022-08-11T01:21:10.787Z,95390.91
2022-08-11T01:24:31.109Z,95407.78
2022-08-11T01:27:36.469Z,95390.94
2022-08-11T01:30:40.562Z,95349.81
2022-08-11T01:33:59.547Z,95395.63
2022-08-11T01:36:57.220Z,95390.56
2022-08-11T01:39:55.310Z,95393.28
2022-08-11T01:43:16.417Z,95397.94
2022-08-11T01:45:52.110Z,95388.16
2022-08-11T01:48:41.760Z,95399.88
2022-08-11T01:51:18.633Z,95397.53
2022-08-11T01:54:00.745Z,95394.78
2022-08-11T01:56:51.010Z,95377.56
2022-08-11T01:59:24.476Z,95397.16
2022-08-11T02:02:45.939Z,95398.34
2022-08-11T02:05:24.735Z,95379.94
2022-08-11T02:07:59.318Z,95399.94
2022-08-11T02:10:56.310Z,95395.63
2022-08-11T02:13:37.266Z,95395.19
2022-08-11T02:16:15.999Z,95392.06
2022-08-11T02:19:17.964Z,95383.06
2022-08-11T02:22:18.657Z,95330.25
2022-08-11T02:24:56.640Z,95401.06
2022-08-11T02:27:36.180Z,95391.22
2022-08-11T02:30:07.702Z,95402.84
2022-08-11T02:32:57.869Z,95406.25
2022-08-11T02:35:36.889Z,95352.28
2022-08-11T02:38:18.113Z,95406.78
2022-08-11T02:40:51.616Z,95340.88
2022-08-11T02:43:30.425Z,95397.22
2022-08-11T02:46:18.047Z,95369.00
2022-08-11T02:49:12.192Z,95402.34
2022-08-11T02:51:52.424Z,95399.28
2022-08-11T02:54:28.271Z,95403.91
2022-08-11T02:57:03.604Z,95352.66
2022-08-11T02:59:54.510Z,95410.31
2022-08-11T03:02:33.204Z,95401.63
2022-08-11T03:05:08.360Z,95409.81
2022-08-11T03:07:43.450Z,95388.28
2022-08-11T03:10:19.493Z,95404.81
2022-08-11T03:13:11.070Z,95369.88
2022-08-11T03:16:10.628Z,95394.94
2022-08-11T03:18:49.909Z,95408.94
2022-08-11T03:21:23.668Z,95417.50
2022-08-11T03:24:01.606Z,95408.09
2022-08-11T03:26:38.636Z,95412.41
2022-08-11T03:29:13.161Z,95403.06
2022-08-11T03:31:57.915Z,95403.47
2022-08-11T03:34:28.490Z,95411.94
2022-08-11T03:37:37.044Z,95404.06
2022-08-11T03:40:15.104Z,95407.09
2022-08-11T03:42:49.300Z,95414.63
2022-08-11T03:45:29.590Z,95412.66
2022-08-11T03:48:11.571Z,95397.66
2022-08-11T03:50:59.034Z,95392.13
2022-08-11T03:53:49.229Z,95418.41
2022-08-11T03:56:53.163Z,95402.06
2022-08-11T03:59:44.964Z,95387.56
2022-08-11T04:02:50.398Z,95399.66
2022-08-11T04:06:11.817Z,95415.59
2022-08-11T04:09:14.664Z,95414.75
2022-08-11T04:12:36.615Z,95374.88
2022-08-11T04:15:46.289Z,95426.13
2022-08-11T04:19:13.280Z,95376.81
2022-08-11T04:22:09.462Z,95426.31
2022-08-11T04:25:00.475Z,95423.59
2022-08-11T04:28:00.797Z,95429.84
2022-08-11T04:30:40.518Z,95424.34
2022-08-11T04:33:57.114Z,95425.22
2022-08-11T04:37:11.862Z,95433.44
2022-08-11T04:40:10.741Z,95357.38
2022-08-11T04:43:23.018Z,95417.31
2022-08-11T04:46:18.704Z,95416.06
2022-08-11T04:49:24.939Z,95425.13
2022-08-11T04:53:01.799Z,95424.75
2022-08-11T04:56:22.917Z,95432.97
2022-08-11T04:59:32.008Z,95321.28
2022-08-11T05:02:31.461Z,95417.00
2022-08-11T05:05:29.476Z,95376.56
2022-08-11T05:08:34.832Z,95430.47
2022-08-11T05:11:52.755Z,95416.03
2022-08-11T05:14:57.473Z,95432.09
2022-08-11T05:17:52.987Z,95416.38
2022-08-11T05:20:42.193Z,95408.91
2022-08-11T05:23:29.923Z,95375.25
2022-08-11T05:26:48.023Z,95426.25
2022-08-11T05:29:59.939Z,95413.81
2022-08-11T05:32:54.205Z,95428.31
2022-08-11T05:36:00.396Z,95402.59
2022-08-11T05:38:39.941Z,95428.06
2022-08-11T05:41:26.388Z,95332.03
2022-08-11T05:44:19.695Z,95424.75
2022-08-11T05:47:09.993Z,95423.84
2022-08-11T05:49:58.105Z,95426.13
2022-08-11T05:52:55.285Z,95425.44
2022-08-11T05:56:01.952Z,95430.97
2022-08-11T05:58:41.182Z,95428.72
2022-08-11T06:01:11.880Z,95416.41
2022-08-11T06:03:59.786Z,95423.75
2022-08-11T06:06:29.325Z,95425.84
2022-08-11T06:08:58.944Z,95422.91
2022-08-11T06:11:43.292Z,95410.47
2022-08-11T06:14:15.527Z,95416.59
2022-08-11T06:16:44.548Z,95418.00
2022-08-11T06:19:14.512Z,95419.66
2022-08-11T06:21:46.721Z,95402.41
2022-08-11T06:24:16.534Z,95425.84
2022-08-11T06:27:11.387Z,95415.00
2022-08-11T06:29:48.109Z,95416.66
2022-08-11T06:32:24.959Z,95423.66
2022-08-11T06:35:05.038Z,95412.09
2022-08-11T06:37:45.387Z,95419.13
2022-08-11T06:40:27.383Z,95413.66
2022-08-11T06:43:00.087Z,95415.97
2022-08-11T06:45:31.881Z,95401.28
2022-08-11T06:48:02.979Z,95423.66
2022-08-11T06:50:51.179Z,95427.88
2022-08-11T06:53:21.285Z,95416.78
2022-08-11T06:56:08.642Z,95403.69
2022-08-11T06:58:58.139Z,95380.78
2022-08-11T07:01:38.491Z,95410.25
2022-08-11T07:04:09.462Z,95408.25
2022-08-11T07:07:10.773Z,95402.22
2022-08-11T07:10:33.043Z,95408.53
2022-08-11T07:13:39.337Z,95421.44
2022-08-11T07:16:12.599Z,95407.88
2022-08-11T07:19:00.445Z,95423.75
2022-08-11T07:22:01.923Z,95382.25
2022-08-11T07:24:59.655Z,95422.44
2022-08-11T07:27:55.604Z,95422.13
2022-08-11T07:30:25.909Z,95416.75
2022-08-11T07:32:56.372Z,95421.91
2022-08-11T07:35:29.512Z,95418.13
2022-08-11T07:38:02.221Z,95404.66
2022-08-11T07:40:33.811Z,95387.41
2022-08-11T07:43:02.692Z,95408.59
2022-08-11T07:45:48.856Z,95415.47
2022-08-11T07:48:35.203Z,95410.97
2022-08-11T07:51:21.174Z,95408.44
2022-08-11T07:53:58.310Z,95411.81
2022-08-11T07:56:55.348Z,95394.69
2022-08-11T07:59:58.608Z,95398.44
2022-08-11T08:02:48.965Z,95360.69
2022-08-11T08:05:36.307Z,95406.06
2022-08-11T08:08:22.921Z,95400.28
2022-08-11T08:11:10.462Z,95395.47
2022-08-11T08:13:58.049Z,95375.00
2022-08-11T08:16:44.775Z,95370.09
2022-08-11T08:19:13.885Z,95400.78
2022-08-11T08:21:45.366Z,95400.94
2022-08-11T08:24:15.027Z,95394.53
2022-08-11T08:26:59.594Z,95388.16
2022-08-11T08:29:49.781Z,95378.09
2022-08-11T08:32:18.777Z,95386.56
2022-08-11T08:34:47.714Z,95383.88
2022-08-11T08:37:46.220Z,95381.00
2022-08-11T08:40:10.107Z,95359.44
2022-08-11T08:42:45.541Z,95318.72
2022-08-11T08:45:18.436Z,95373.56
2022-08-11T08:47:53.512Z,95382.69
2022-08-11T08:50:46.936Z,95367.22
2022-08-11T08:53:18.732Z,95373.41
2022-08-11T08:55:47.424Z,95373.06
2022-08-11T08:58:17.506Z,95380.00
2022-08-11T09:00:48.421Z,95374.31
2022-08-11T09:03:39.916Z,95356.16
2022-08-11T09:06:04.941Z,95354.47
2022-08-11T09:08:35.224Z,95378.53
2022-08-11T09:11:22.679Z,95346.56
2022-08-11T09:14:05.139Z,95371.09
2022-08-11T09:16:39.671Z,95365.44
2022-08-11T09:19:09.245Z,95278.28
2022-08-11T09:21:49.198Z,95352.31
2022-08-11T09:24:36.940Z,95250.88
2022-08-11T09:27:07.901Z,95356.53
2022-08-11T09:29:37.335Z,95360.06
2022-08-11T09:32:08.978Z,95364.91
2022-08-11T09:34:39.868Z,95355.88
2022-08-11T09:37:53.719Z,95342.13
2022-08-11T09:40:33.523Z,95355.09
2022-08-11T09:43:23.136Z,95353.72
2022-08-11T09:45:53.616Z,95349.44
2022-08-11T09:48:24.964Z,95350.41
2022-08-11T09:50:55.517Z,95347.25
2022-08-11T09:53:41.064Z,95329.38
2022-08-11T09:56:31.653Z,95053.91
2022-08-11T09:59:00.626Z,95328.59
2022-08-11T10:01:31.991Z,95325.69
2022-08-11T10:04:05.196Z,95316.69
2022-08-11T10:06:54.472Z,95329.00
2022-08-11T10:09:25.513Z,95322.16
2022-08-11T10:11:58.335Z,95317.78
2022-08-11T10:14:45.458Z,95326.81
2022-08-11T10:17:16.021Z,95326.03
2022-08-11T10:20:03.967Z,95259.28
2022-08-11T10:22:51.803Z,95290.22
2022-08-11T10:25:38.666Z,95319.38
2022-08-11T10:28:33.087Z,95300.03
2022-08-11T10:31:22.784Z,95260.31
2022-08-11T10:34:10.793Z,95322.03
2022-08-11T10:36:47.122Z,95328.78
2022-08-11T10:39:18.439Z,95333.31
2022-08-11T10:42:08.858Z,95297.69
2022-08-11T10:44:41.097Z,95310.78
2022-08-11T10:47:29.809Z,95309.13
2022-08-11T10:50:15.912Z,95291.59
2022-08-11T10:53:06.034Z,95302.66
2022-08-11T10:55:52.688Z,95191.25
2022-08-11T10:58:39.883Z,95296.41
2022-08-11T11:01:08.149Z,95268.59
2022-08-11T11:03:37.495Z,95294.63
2022-08-11T11:06:28.508Z,95275.25
2022-08-11T11:09:05.374Z,95277.66
2022-08-11T11:11:56.471Z,95292.69
2022-08-11T11:14:50.698Z,95297.97
2022-08-11T11:17:45.118Z,95287.75
2022-08-11T11:20:37.140Z,95288.69
2022-08-11T11:23:09.398Z,95217.34
2022-08-11T11:26:06.598Z,95287.03
2022-08-11T11:28:51.117Z,95284.63
2022-08-11T11:31:30.523Z,95292.44
2022-08-11T11:34:16.226Z,95261.63
2022-08-11T11:36:49.530Z,95289.00
2022-08-11T11:39:21.740Z,95283.44
2022-08-11T11:41:54.372Z,95290.94
2022-08-11T11:44:23.821Z,95291.66
2022-08-11T11:46:52.696Z,95284.53
2022-08-11T11:49:25.779Z,95280.72
2022-08-11T11:51:54.711Z,95281.59
2022-08-11T11:54:26.551Z,95279.13
2022-08-11T11:56:57.865Z,95283.63
2022-08-11T11:59:47.769Z,95284.06
2022-08-11T12:02:17.433Z,95274.31
2022-08-11T12:04:49.797Z,95290.00
2022-08-11T12:07:36.892Z,95276.97
2022-08-11T12:10:05.991Z,95283.44
2022-08-11T12:12:49.601Z,95273.47
2022-08-11T12:15:19.919Z,95232.00
2022-08-11T12:18:08.473Z,95174.97
2022-08-11T12:20:37.004Z,95268.13
2022-08-11T12:23:23.110Z,95267.63
2022-08-11T12:26:27.390Z,95269.28
2022-08-11T12:28:58.228Z,95264.81
2022-08-11T12:31:27.561Z,95270.56
2022-08-11T12:34:01.998Z,95268.13
2022-08-11T12:36:31.068Z,95274.09
2022-08-11T12:38:59.786Z,95275.47
2022-08-11T12:41:53.619Z,95274.63
2022-08-11T12:44:44.454Z,95288.50
2022-08-11T12:47:18.419Z,95227.09
2022-08-11T12:50:06.841Z,95299.84
2022-08-11T12:52:57.083Z,95291.66
2022-08-11T12:55:40.140Z,95174.72
2022-08-11T12:58:18.030Z,95289.31
2022-08-11T13:01:06.569Z,95282.28
2022-08-11T13:03:59.039Z,95281.47
2022-08-11T13:06:27.456Z,95238.63
2022-08-11T13:09:00.934Z,95264.16
2022-08-11T13:11:56.876Z,95204.34
2022-08-11T13:14:26.899Z,95274.78
2022-08-11T13:17:14.834Z,94821.28
2022-08-11T13:19:49.602Z,95269.13
2022-08-11T13:22:19.584Z,95222.66
2022-08-11T13:24:49.220Z,95271.44
2022-08-11T13:27:19.841Z,95163.38
2022-08-11T13:29:49.597Z,95234.00
2022-08-11T13:32:21.497Z,95258.00
2022-08-11T13:34:49.938Z,95214.41
2022-08-11T13:37:20.654Z,95250.59
2022-08-11T13:40:11.568Z,95272.75
2022-08-11T13:42:41.773Z,95251.63
2022-08-11T13:45:10.892Z,95252.16
2022-08-11T13:47:44.376Z,95236.41
2022-08-11T13:50:13.966Z,95250.31
2022-08-11T13:52:43.224Z,95245.03
2022-08-11T13:55:33.317Z,95242.94
2022-08-11T13:58:19.099Z,95239.50
2022-08-11T14:00:52.666Z,95229.97
2022-08-11T14:03:26.872Z,95194.69
2022-08-11T14:06:16.281Z,95229.53
2022-08-11T14:08:47.379Z,95189.28
2022-08-11T14:12:22.060Z,95226.31
2022-08-11T14:14:26.789Z,95219.66
2022-08-11T14:16:58.533Z,95230.53
2022-08-11T14:19:29.389Z,95225.63
2022-08-11T14:22:11.424Z,95216.44
2022-08-11T14:24:41.522Z,95221.84
2022-08-11T14:28:32.640Z,95230.91
2022-08-11T14:30:00.420Z,95224.69
2022-08-11T14:32:28.635Z,95175.19
2022-08-11T14:34:59.134Z,95227.66
2022-08-11T14:37:29.133Z,95225.97
2022-08-11T14:40:03.220Z,95218.22
2022-08-11T14:42:49.928Z,95218.66
2022-08-11T14:45:58.455Z,95245.03
2022-08-11T14:48:28.138Z,95084.09
2022-08-11T14:50:58.085Z,95218.88
2022-08-11T14:53:26.700Z,95209.47
2022-08-11T14:56:13.195Z,95212.00
2022-08-11T14:58:43.228Z,95189.66
2022-08-11T15:01:25.927Z,95217.13
2022-08-11T15:04:01.210Z,95033.97
2022-08-11T15:06:44.316Z,95217.59
2022-08-11T15:09:12.457Z,95214.19
2022-08-11T15:11:58.656Z,95168.16
2022-08-11T15:14:41.357Z,95098.75
2022-08-11T15:17:12.651Z,95214.59
2022-08-11T15:20:05.133Z,95135.72
2022-08-11T15:22:52.768Z,95199.66
2022-08-11T15:25:21.250Z,95213.13
2022-08-11T15:28:11.495Z,95209.91
2022-08-11T15:30:57.601Z,95210.91
2022-08-11T15:33:47.310Z,95207.47
2022-08-11T15:36:33.654Z,95170.22
2022-08-11T15:39:19.509Z,95214.53
2022-08-11T15:42:12.972Z,95211.50
2022-08-11T15:45:03.558Z,95201.13
2022-08-11T15:47:38.944Z,95189.59
2022-08-11T15:50:14.192Z,95206.66
2022-08-11T15:52:51.007Z,95175.34
2022-08-11T15:55:23.547Z,95190.84
2022-08-11T15:58:12.202Z,95070.81
2022-08-11T16:01:02.001Z,95205.00
2022-08-11T16:04:08.060Z,95211.94
2022-08-11T16:06:47.507Z,95214.50
2022-08-11T16:09:21.411Z,95200.72
2022-08-11T16:11:52.498Z,95224.59
2022-08-11T16:14:53.624Z,95223.03
2022-08-11T16:17:22.688Z,95215.31
2022-08-11T16:19:54.585Z,95220.41
2022-08-11T16:22:34.415Z,95217.03
2022-08-11T16:27:04.999Z,95215.56
2022-08-11T16:27:57.160Z,95196.66
2022-08-11T16:30:26.126Z,95100.41
2022-08-11T16:32:55.525Z,95209.72
2022-08-11T16:35:43.683Z,95225.94
2022-08-11T16:38:31.898Z,95225.69
2022-08-11T16:41:01.928Z,95226.31
2022-08-11T16:43:50.872Z,95184.16
2022-08-11T16:46:39.226Z,95221.25
2022-08-11T16:49:11.942Z,95204.31
2022-08-11T16:51:40.099Z,95175.56
2022-08-11T16:54:08.500Z,95179.63
2022-08-11T16:56:42.341Z,95232.63
2022-08-11T16:59:18.224Z,95103.06
2022-08-11T17:01:53.370Z,95229.72
2022-08-11T17:04:54.485Z,95220.16
2022-08-11T17:07:43.260Z,95234.41
2022-08-11T17:10:52.077Z,95197.25
2022-08-11T17:13:32.867Z,95241.84
2022-08-11T17:16:12.525Z,95244.34
2022-08-11T17:18:52.608Z,95244.84
2022-08-11T17:21:23.992Z,95203.41
2022-08-11T17:23:55.213Z,95245.53
2022-08-11T17:26:27.941Z,95251.31
2022-08-11T17:28:58.959Z,95221.75
2022-08-11T17:31:47.529Z,95252.00
2022-08-11T17:34:33.805Z,95261.84
2022-08-11T17:37:02.436Z,95256.75
2022-08-11T17:39:32.907Z,95267.53
2022-08-11T17:42:20.168Z,95248.31
2022-08-11T17:45:07.478Z,95273.78
2022-08-11T17:47:54.858Z,95275.78
2022-08-11T17:50:24.084Z,95280.31
2022-08-11T17:53:11.143Z,95224.00
2022-08-11T17:55:58.597Z,95291.97
2022-08-11T17:58:45.407Z,95288.78
2022-08-11T18:01:14.363Z,95276.63
2022-08-11T18:03:56.387Z,95300.41
2022-08-11T18:06:29.711Z,95287.56
2022-08-11T18:09:23.371Z,95287.56
2022-08-11T18:12:11.822Z,95303.03
2022-08-11T18:14:59.175Z,95306.91
2022-08-11T18:17:44.587Z,95304.13
2022-08-11T18:20:31.305Z,95307.53
2022-08-11T18:23:20.711Z,95313.81
2022-08-11T18:26:07.734Z,95322.09
2022-08-11T18:29:01.675Z,95323.44
2022-08-11T18:31:51.112Z,95325.88
2022-08-11T18:34:40.643Z,95323.94
2022-08-11T18:37:37.389Z,95323.09
2022-08-11T18:40:28.550Z,95320.72
2022-08-11T18:43:16.759Z,95327.50
2022-08-11T18:46:07.768Z,95306.94
2022-08-11T18:48:56.684Z,95329.19
2022-08-11T18:51:43.999Z,95325.72
2022-08-11T18:54:32.640Z,95340.47
2022-08-11T18:57:22.501Z,95330.75
2022-08-11T19:00:11.146Z,95330.09
2022-08-11T19:03:00.014Z,95336.50
2022-08-11T19:06:32.508Z,95345.19
2022-08-11T19:09:01.264Z,95303.41
2022-08-11T19:11:51.688Z,95341.53
2022-08-11T19:14:38.309Z,95332.47
2022-08-11T19:17:44.338Z,95338.50
2022-08-11T19:20:35.544Z,95291.69
2022-08-11T19:23:25.476Z,95334.09
2022-08-11T19:26:14.243Z,95323.44
2022-08-11T19:29:03.478Z,95323.44
2022-08-11T19:31:51.664Z,95264.97
2022-08-11T19:34:39.318Z,95288.78
2022-08-11T19:37:26.049Z,95327.66
2022-08-11T19:40:13.042Z,95327.66
2022-08-11T19:43:01.872Z,95323.97
2022-08-11T19:45:52.289Z,95264.81
2022-08-11T19:48:43.196Z,95319.47
2022-08-11T19:51:30.647Z,95318.16
2022-08-11T19:54:19.973Z,95326.59
2022-08-11T19:57:11.320Z,95284.53
2022-08-11T19:59:58.279Z,95325.22
2022-08-11T20:02:45.933Z,95329.97
2022-08-11T20:05:32.105Z,95332.34
2022-08-11T20:08:18.991Z,95332.81
2022-08-11T20:11:06.729Z,95333.25
2022-08-11T20:13:54.076Z,95334.22
2022-08-11T20:16:41.604Z,95327.03
2022-08-11T20:19:56.263Z,95343.00
2022-08-11T20:22:37.402Z,95339.09
2022-08-11T20:25:26.296Z,95285.31
2022-08-11T20:28:14.176Z,95306.47
2022-08-11T20:31:03.903Z,95291.72
2022-08-11T20:33:52.281Z,95117.34
2022-08-11T20:36:40.520Z,95344.19
2022-08-11T20:39:27.311Z,95351.28
2022-08-11T20:42:14.428Z,95350.56
2022-08-11T20:45:00.456Z,95360.81
2022-08-11T20:47:56.807Z,95249.91
2022-08-11T20:50:46.640Z,95355.00
2022-08-11T20:53:40.511Z,95352.25
2022-08-11T20:56:28.502Z,95351.88
2022-08-11T20:59:18.359Z,95351.09
2022-08-11T21:02:10.029Z,95360.06
2022-08-11T21:04:57.825Z,95356.97
2022-08-11T21:07:55.351Z,95353.84
2022-08-11T21:10:46.744Z,95208.56
2022-08-11T21:13:36.904Z,95361.84
2022-08-11T21:16:27.302Z,95280.28
2022-08-11T21:19:54.475Z,95368.63
2022-08-11T21:22:27.983Z,95372.28
2022-08-11T21:25:16.417Z,95346.50
2022-08-11T21:28:05.224Z,95375.53
2022-08-11T21:30:57.770Z,95357.56
2022-08-11T21:33:45.658Z,95383.03
2022-08-11T21:36:32.893Z,95370.13
2022-08-11T21:39:21.077Z,95207.44
2022-08-11T21:42:12.348Z,95392.09
2022-08-11T21:45:01.369Z,95381.13
2022-08-11T21:47:48.543Z,95388.94
2022-08-11T21:50:34.425Z,95345.50
2022-08-11T21:53:20.704Z,95390.13
2022-08-11T21:56:08.079Z,95388.94
2022-08-11T21:58:54.603Z,95182.41
2022-08-11T22:01:42.433Z,95390.09
2022-08-11T22:04:28.910Z,95404.59
2022-08-11T22:07:15.219Z,95375.63
2022-08-11T22:10:00.972Z,95389.72
2022-08-11T22:13:06.224Z,95213.66
2022-08-11T22:15:51.814Z,95392.81
2022-08-11T22:18:38.888Z,95390.88
2022-08-11T22:22:02.413Z,95356.84
2022-08-11T22:24:31.947Z,95388.16
2022-08-11T22:27:17.345Z,95392.06
2022-08-11T22:30:02.992Z,95388.91
2022-08-11T22:32:48.933Z,95385.00
2022-08-11T22:35:36.469Z,95385.78
2022-08-11T22:38:22.574Z,95386.97
2022-08-11T22:41:08.016Z,95381.50
2022-08-11T22:43:53.274Z,95379.56
2022-08-11T22:46:40.285Z,95230.09
2022-08-11T22:49:27.655Z,95361.53
2022-08-11T22:52:17.198Z,95331.41
2022-08-11T22:55:05.069Z,95367.81
2022-08-11T22:58:01.118Z,95370.91
2022-08-11T23:00:47.672Z,95365.47
2022-08-11T23:03:38.015Z,95372.09
2022-08-11T23:06:24.208Z,95331.81
2022-08-11T23:09:11.953Z,95364.69
2022-08-11T23:12:07.901Z,95349.81
2022-08-11T23:14:57.437Z,95311.44
2022-08-11T23:17:43.090Z,95317.31
2022-08-11T23:20:39.650Z,95353.28
2022-08-11T23:23:28.137Z,95357.63
2022-08-11T23:26:15.501Z,95283.31
2022-08-11T23:29:05.399Z,95237.13
2022-08-11T23:31:53.797Z,95335.72
2022-08-11T23:35:04.882Z,95357.59
2022-08-11T23:37:48.565Z,95324.00
2022-08-11T23:40:34.242Z,95360.75
2022-08-11T23:43:21.416Z,95367.41
2022-08-11T23:46:06.860Z,95354.44
2022-08-11T23:48:52.635Z,95187.06
2022-08-11T23:51:41.232Z,95355.97
2022-08-11T23:54:27.422Z,95349.63
2022-08-11T23:57:13.545Z,95359.03
